sensor_id;sensor_type;location;lat;lon;timestamp;pressure;altitude;pressure_sealevel;temperature;humidity
5595;BME280;1003;48.002;7.788;2022-08-21T00:01:22;98974.81;;;16.33;100.00
5595;BME280;1003;48.002;7.788;2022-08-21T00:03:50;98975.41;;;16.40;100.00
5595;BME280;1003;48.002;7.788;2022-08-21T00:06:18;98976.97;;;16.44;100.00
5595;BME280;1003;48.002;7.788;2022-08-21T00:08:45;98979.81;;;16.58;100.00
5595;BME280;1003;48.002;7.788;2022-08-21T00:11:14;98983.09;;;16.60;100.00
5595;BME280;1003;48.002;7.788;2022-08-21T00:13:41;98990.78;;;16.59;100.00
5595;BME280;1003;48.002;7.788;2022-08-21T00:16:09;98979.84;;;16.57;100.00
5595;BME280;1003;48.002;7.788;2022-08-21T00:18:37;98982.44;;;16.55;100.00
5595;BME280;1003;48.002;7.788;2022-08-21T00:21:05;98978.34;;;16.52;100.00
5595;BME280;1003;48.002;7.788;2022-08-21T00:23:34;98980.97;;;16.49;100.00
5595;BME280;1003;48.002;7.788;2022-08-21T00:26:02;98981.94;;;16.47;100.00
5595;BME280;1003;48.002;7.788;2022-08-21T00:28:31;98977.78;;;16.44;100.00
5595;BME280;1003;48.002;7.788;2022-08-21T00:30:59;98981.97;;;16.45;100.00
5595;BME280;1003;48.002;7.788;2022-08-21T00:33:26;98977.06;;;16.41;100.00
5595;BME280;1003;48.002;7.788;2022-08-21T00:35:53;98982.84;;;16.44;100.00
5595;BME280;1003;48.002;7.788;2022-08-21T00:38:20;98970.41;;;16.38;100.00
5595;BME280;1003;48.002;7.788;2022-08-21T00:40:52;98973.00;;;16.37;100.00
5595;BME280;1003;48.002;7.788;2022-08-21T00:43:24;98978.41;;;16.27;100.00
5595;BME280;1003;48.002;7.788;2022-08-21T00:45:55;98962.31;;;16.28;100.00
5595;BME280;1003;48.002;7.788;2022-08-21T00:48:24;98968.56;;;16.20;100.00
5595;BME280;1003;48.002;7.788;2022-08-21T00:50:58;98966.41;;;16.09;100.00
5595;BME280;1003;48.002;7.788;2022-08-21T00:53:28;98962.56;;;15.97;100.00
5595;BME280;1003;48.002;7.788;2022-08-21T00:55:57;98961.91;;;15.92;100.00
5595;BME280;1003;48.002;7.788;2022-08-21T00:58:27;98957.03;;;15.88;100.00
5595;BME280;1003;48.002;7.788;2022-08-21T01:01:01;98958.63;;;15.90;100.00
5595;BME280;1003;48.002;7.788;2022-08-21T01:03:28;98947.81;;;15.85;100.00
5595;BME280;1003;48.002;7.788;2022-08-21T01:05:55;98958.09;;;15.81;100.00
5595;BME280;1003;48.002;7.788;2022-08-21T01:08:23;98953.16;;;15.78;100.00
5595;BME280;1003;48.002;7.788;2022-08-21T01:10:52;98949.06;;;15.73;100.00
5595;BME280;1003;48.002;7.788;2022-08-21T01:13:21;98954.28;;;15.69;100.00
5595;BME280;1003;48.002;7.788;2022-08-21T01:15:53;98947.44;;;15.72;100.00
5595;BME280;1003;48.002;7.788;2022-08-21T01:18:22;98946.63;;;15.70;100.00
5595;BME280;1003;48.002;7.788;2022-08-21T01:21:05;98951.66;;;15.72;100.00
5595;BME280;1003;48.002;7.788;2022-08-21T01:23:34;98948.34;;;15.70;100.00
5595;BME280;1003;48.002;7.788;2022-08-21T01:26:02;98953.38;;;15.71;100.00
5595;BME280;1003;48.002;7.788;2022-08-21T01:28:36;98948.91;;;15.78;100.00
5595;BME280;1003;48.002;7.788;2022-08-21T01:31:10;98954.22;;;15.72;100.00
5595;BME280;1003;48.002;7.788;2022-08-21T01:33:40;98948.56;;;15.64;100.00
5595;BME280;1003;48.002;7.788;2022-08-21T01:36:09;98948.59;;;15.62;100.00
5595;BME280;1003;48.002;7.788;2022-08-21T01:38:36;98947.47;;;15.71;100.00
5595;BME280;1003;48.002;7.788;2022-08-21T01:41:03;98946.91;;;15.63;100.00
5595;BME280;1003;48.002;7.788;2022-08-21T01:43:30;98950.38;;;15.59;100.00
5595;BME280;1003;48.002;7.788;2022-08-21T01:45:57;98939.84;;;15.46;100.00
5595;BME280;1003;48.002;7.788;2022-08-21T01:48:25;98937.69;;;15.35;100.00
5595;BME280;1003;48.002;7.788;2022-08-21T01:50:52;98938.81;;;15.27;100.00
5595;BME280;1003;48.002;7.788;2022-08-21T01:53:20;98932.50;;;15.13;100.00
5595;BME280;1003;48.002;7.788;2022-08-21T01:55:47;98934.41;;;15.07;100.00
5595;BME280;1003;48.002;7.788;2022-08-21T01:58:14;98931.09;;;15.05;100.00
5595;BME280;1003;48.002;7.788;2022-08-21T02:00:41;98922.81;;;15.00;100.00
5595;BME280;1003;48.002;7.788;2022-08-21T02:03:09;98924.56;;;14.98;100.00
5595;BME280;1003;48.002;7.788;2022-08-21T02:05:36;98919.47;;;14.99;100.00
5595;BME280;1003;48.002;7.788;2022-08-21T02:08:05;98921.31;;;14.94;100.00
5595;BME280;1003;48.002;7.788;2022-08-21T02:10:34;98922.19;;;14.93;100.00
5595;BME280;1003;48.002;7.788;2022-08-21T02:13:01;98922.25;;;14.91;100.00
5595;BME280;1003;48.002;7.788;2022-08-21T02:15:30;98927.34;;;14.90;100.00
5595;BME280;1003;48.002;7.788;2022-08-21T02:18:00;98922.28;;;14.90;100.00
5595;BME280;1003;48.002;7.788;2022-08-21T02:20:31;98922.53;;;14.82;100.00
5595;BME280;1003;48.002;7.788;2022-08-21T02:23:00;98912.81;;;14.70;100.00
5595;BME280;1003;48.002;7.788;2022-08-21T02:25:28;98909.78;;;14.59;100.00
5595;BME280;1003;48.002;7.788;2022-08-21T02:28:01;98904.03;;;14.54;100.00
5595;BME280;1003;48.002;7.788;2022-08-21T02:30:33;98903.41;;;14.45;100.00
5595;BME280;1003;48.002;7.788;2022-08-21T02:33:04;98895.81;;;14.45;100.00
5595;BME280;1003;48.002;7.788;2022-08-21T02:35:32;98882.34;;;14.45;100.00
5595;BME280;1003;48.002;7.788;2022-08-21T02:38:03;98883.06;;;14.50;100.00
5595;BME280;1003;48.002;7.788;2022-08-21T02:40:33;98882.91;;;14.55;100.00
5595;BME280;1003;48.002;7.788;2022-08-21T02:43:05;98884.66;;;14.53;100.00
5595;BME280;1003;48.002;7.788;2022-08-21T02:45:32;98887.19;;;14.53;100.00
5595;BME280;1003;48.002;7.788;2022-08-21T02:48:04;98887.16;;;14.54;100.00
5595;BME280;1003;48.002;7.788;2022-08-21T02:50:36;98883.56;;;14.61;100.00
5595;BME280;1003;48.002;7.788;2022-08-21T02:53:04;98885.19;;;14.62;100.00
5595;BME280;1003;48.002;7.788;2022-08-21T02:55:34;98887.88;;;14.58;100.00
5595;BME280;1003;48.002;7.788;2022-08-21T02:58:06;98886.91;;;14.62;100.00
5595;BME280;1003;48.002;7.788;2022-08-21T03:00:36;98886.03;;;14.63;100.00
5595;BME280;1003;48.002;7.788;2022-08-21T03:03:05;98889.53;;;14.59;100.00
5595;BME280;1003;48.002;7.788;2022-08-21T03:05:35;98899.81;;;14.53;100.00
5595;BME280;1003;48.002;7.788;2022-08-21T03:08:05;98886.41;;;14.51;100.00
5595;BME280;1003;48.002;7.788;2022-08-21T03:10:38;98895.03;;;14.43;100.00
5595;BME280;1003;48.002;7.788;2022-08-21T03:13:08;98886.56;;;14.44;100.00
5595;BME280;1003;48.002;7.788;2022-08-21T03:15:36;98881.78;;;14.35;100.00
5595;BME280;1003;48.002;7.788;2022-08-21T03:18:04;98888.28;;;14.16;100.00
5595;BME280;1003;48.002;7.788;2022-08-21T03:20:35;98879.50;;;14.00;100.00
5595;BME280;1003;48.002;7.788;2022-08-21T03:23:05;98882.44;;;13.84;100.00
5595;BME280;1003;48.002;7.788;2022-08-21T03:25:36;98876.75;;;13.78;100.00
5595;BME280;1003;48.002;7.788;2022-08-21T03:28:10;98882.00;;;13.70;100.00
5595;BME280;1003;48.002;7.788;2022-08-21T03:30:40;98880.41;;;13.66;100.00
5595;BME280;1003;48.002;7.788;2022-08-21T03:33:09;98875.50;;;13.61;100.00
5595;BME280;1003;48.002;7.788;2022-08-21T03:35:37;98868.88;;;13.57;100.00
5595;BME280;1003;48.002;7.788;2022-08-21T03:38:04;98877.19;;;13.61;100.00
5595;BME280;1003;48.002;7.788;2022-08-21T03:40:33;98868.66;;;13.65;100.00
5595;BME280;1003;48.002;7.788;2022-08-21T03:43:00;98861.00;;;13.68;100.00
5595;BME280;1003;48.002;7.788;2022-08-21T03:45:31;98872.06;;;13.64;100.00
5595;BME280;1003;48.002;7.788;2022-08-21T03:48:03;98869.88;;;13.52;100.00
5595;BME280;1003;48.002;7.788;2022-08-21T03:50:34;98863.41;;;13.42;100.00
5595;BME280;1003;48.002;7.788;2022-08-21T03:53:03;98861.06;;;13.35;100.00
5595;BME280;1003;48.002;7.788;2022-08-21T03:55:30;98862.94;;;13.27;100.00
5595;BME280;1003;48.002;7.788;2022-08-21T03:57:57;98855.50;;;13.23;100.00
5595;BME280;1003;48.002;7.788;2022-08-21T04:00:25;98858.06;;;13.21;100.00
5595;BME280;1003;48.002;7.788;2022-08-21T04:02:56;98857.19;;;13.21;100.00
5595;BME280;1003;48.002;7.788;2022-08-21T04:05:25;98858.88;;;13.22;100.00
5595;BME280;1003;48.002;7.788;2022-08-21T04:08:00;98852.94;;;13.24;100.00
5595;BME280;1003;48.002;7.788;2022-08-21T04:10:31;98857.53;;;13.41;100.00
5595;BME280;1003;48.002;7.788;2022-08-21T04:13:00;98863.03;;;13.55;100.00
5595;BME280;1003;48.002;7.788;2022-08-21T04:15:30;98862.72;;;13.68;100.00
5595;BME280;1003;48.002;7.788;2022-08-21T04:18:02;98865.78;;;13.77;100.00
5595;BME280;1003;48.002;7.788;2022-08-21T04:20:32;98870.41;;;13.92;100.00
5595;BME280;1003;48.002;7.788;2022-08-21T04:23:01;98874.59;;;13.93;100.00
5595;BME280;1003;48.002;7.788;2022-08-21T04:25:31;98879.63;;;13.95;100.00
5595;BME280;1003;48.002;7.788;2022-08-21T04:28:00;98891.31;;;13.98;100.00
5595;BME280;1003;48.002;7.788;2022-08-21T04:30:30;98891.97;;;14.04;100.00
5595;BME280;1003;48.002;7.788;2022-08-21T04:33:01;98886.84;;;14.07;100.00
5595;BME280;1003;48.002;7.788;2022-08-21T04:35:31;98896.03;;;14.10;100.00
5595;BME280;1003;48.002;7.788;2022-08-21T04:38:00;98899.22;;;14.16;100.00
5595;BME280;1003;48.002;7.788;2022-08-21T04:40:30;98904.84;;;14.26;100.00
5595;BME280;1003;48.002;7.788;2022-08-21T04:43:03;98903.84;;;14.30;100.00
5595;BME280;1003;48.002;7.788;2022-08-21T04:45:37;98907.88;;;14.37;100.00
5595;BME280;1003;48.002;7.788;2022-08-21T04:48:11;98906.84;;;14.43;100.00
5595;BME280;1003;48.002;7.788;2022-08-21T04:50:43;98905.75;;;14.53;100.00
5595;BME280;1003;48.002;7.788;2022-08-21T04:53:18;98913.00;;;14.64;100.00
5595;BME280;1003;48.002;7.788;2022-08-21T04:55:47;98910.13;;;14.75;100.00
5595;BME280;1003;48.002;7.788;2022-08-21T04:58:18;98910.63;;;14.86;100.00
5595;BME280;1003;48.002;7.788;2022-08-21T05:00:47;98923.75;;;14.97;100.00
5595;BME280;1003;48.002;7.788;2022-08-21T05:03:17;98925.06;;;15.09;100.00
5595;BME280;1003;48.002;7.788;2022-08-21T05:05:44;98942.56;;;15.15;100.00
5595;BME280;1003;48.002;7.788;2022-08-21T05:08:16;98940.63;;;15.23;100.00
5595;BME280;1003;48.002;7.788;2022-08-21T05:10:44;98941.19;;;15.31;100.00
5595;BME280;1003;48.002;7.788;2022-08-21T05:13:12;98944.25;;;15.41;100.00
5595;BME280;1003;48.002;7.788;2022-08-21T05:15:42;98946.47;;;15.50;100.00
5595;BME280;1003;48.002;7.788;2022-08-21T05:18:09;98943.78;;;15.55;100.00
5595;BME280;1003;48.002;7.788;2022-08-21T05:20:38;98955.06;;;15.71;100.00
5595;BME280;1003;48.002;7.788;2022-08-21T05:23:08;98958.38;;;15.73;100.00
5595;BME280;1003;48.002;7.788;2022-08-21T05:25:36;98955.34;;;15.87;100.00
5595;BME280;1003;48.002;7.788;2022-08-21T05:28:04;98961.53;;;16.03;100.00
5595;BME280;1003;48.002;7.788;2022-08-21T05:30:32;98971.03;;;16.21;100.00
5595;BME280;1003;48.002;7.788;2022-08-21T05:33:01;98967.22;;;16.33;100.00
5595;BME280;1003;48.002;7.788;2022-08-21T05:35:30;98963.97;;;16.51;100.00
5595;BME280;1003;48.002;7.788;2022-08-21T05:38:03;98967.16;;;16.57;100.00
5595;BME280;1003;48.002;7.788;2022-08-21T05:40:31;98967.81;;;16.62;100.00
5595;BME280;1003;48.002;7.788;2022-08-21T05:42:59;98964.97;;;16.71;100.00
5595;BME280;1003;48.002;7.788;2022-08-21T05:45:30;98967.19;;;16.78;100.00
5595;BME280;1003;48.002;7.788;2022-08-21T05:48:05;98965.03;;;16.91;100.00
5595;BME280;1003;48.002;7.788;2022-08-21T05:50:35;98962.00;;;17.03;100.00
5595;BME280;1003;48.002;7.788;2022-08-21T05:53:07;98966.06;;;17.08;100.00
5595;BME280;1003;48.002;7.788;2022-08-21T05:55:38;98968.84;;;17.01;100.00
5595;BME280;1003;48.002;7.788;2022-08-21T05:58:07;98955.56;;;16.95;100.00
5595;BME280;1003;48.002;7.788;2022-08-21T06:00:37;98961.09;;;17.04;100.00
5595;BME280;1003;48.002;7.788;2022-08-21T06:03:11;98963.91;;;17.19;100.00
5595;BME280;1003;48.002;7.788;2022-08-21T06:05:38;98973.28;;;17.39;100.00
5595;BME280;1003;48.002;7.788;2022-08-21T06:08:07;98970.72;;;17.59;100.00
5595;BME280;1003;48.002;7.788;2022-08-21T06:10:36;98961.31;;;17.61;100.00
5595;BME280;1003;48.002;7.788;2022-08-21T06:13:06;98963.34;;;17.53;100.00
5595;BME280;1003;48.002;7.788;2022-08-21T06:15:35;98965.31;;;17.87;100.00
5595;BME280;1003;48.002;7.788;2022-08-21T06:18:04;98965.47;;;18.59;100.00
5595;BME280;1003;48.002;7.788;2022-08-21T06:20:33;98971.38;;;18.79;100.00
5595;BME280;1003;48.002;7.788;2022-08-21T06:23:01;98966.72;;;18.70;100.00
5595;BME280;1003;48.002;7.788;2022-08-21T06:25:35;98970.56;;;18.59;100.00
5595;BME280;1003;48.002;7.788;2022-08-21T06:28:06;98957.50;;;18.48;100.00
5595;BME280;1003;48.002;7.788;2022-08-21T06:30:38;98979.13;;;20.30;100.00
5595;BME280;1003;48.002;7.788;2022-08-21T06:33:07;98977.97;;;22.43;100.00
5595;BME280;1003;48.002;7.788;2022-08-21T06:35:35;98983.88;;;23.90;85.90
5595;BME280;1003;48.002;7.788;2022-08-21T06:38:05;98993.19;;;25.25;70.10
5595;BME280;1003;48.002;7.788;2022-08-21T06:40:36;98992.34;;;25.94;60.85
5595;BME280;1003;48.002;7.788;2022-08-21T06:43:14;98988.13;;;26.81;62.07
5595;BME280;1003;48.002;7.788;2022-08-21T06:45:44;98990.13;;;27.30;57.65
5595;BME280;1003;48.002;7.788;2022-08-21T06:48:13;98990.13;;;27.72;54.98
5595;BME280;1003;48.002;7.788;2022-08-21T06:50:42;98988.16;;;27.43;50.97
5595;BME280;1003;48.002;7.788;2022-08-21T06:53:15;98988.13;;;26.81;52.14
5595;BME280;1003;48.002;7.788;2022-08-21T06:55:46;98997.28;;;25.97;55.83
5595;BME280;1003;48.002;7.788;2022-08-21T06:58:16;98996.78;;;26.03;57.61
5595;BME280;1003;48.002;7.788;2022-08-21T07:00:48;98995.50;;;25.97;58.46
5595;BME280;1003;48.002;7.788;2022-08-21T07:03:22;99001.47;;;25.86;58.38
5595;BME280;1003;48.002;7.788;2022-08-21T07:05:52;98990.34;;;26.08;58.76
5595;BME280;1003;48.002;7.788;2022-08-21T07:08:20;98996.97;;;25.55;60.20
5595;BME280;1003;48.002;7.788;2022-08-21T07:10:49;98992.69;;;25.20;59.17
5595;BME280;1003;48.002;7.788;2022-08-21T07:13:17;98994.72;;;25.04;64.07
5595;BME280;1003;48.002;7.788;2022-08-21T07:15:48;98993.72;;;25.18;63.78
5595;BME280;1003;48.002;7.788;2022-08-21T07:18:18;98996.13;;;24.36;65.79
5595;BME280;1003;48.002;7.788;2022-08-21T07:20:50;98990.75;;;23.90;76.11
5595;BME280;1003;48.002;7.788;2022-08-21T07:23:27;98988.94;;;23.39;74.27
5595;BME280;1003;48.002;7.788;2022-08-21T07:26:02;98993.22;;;23.13;84.92
5595;BME280;1003;48.002;7.788;2022-08-21T07:28:33;98996.84;;;22.69;85.63
5595;BME280;1003;48.002;7.788;2022-08-21T07:31:04;98995.13;;;22.29;89.24
5595;BME280;1003;48.002;7.788;2022-08-21T07:33:35;99005.72;;;21.80;95.50
5595;BME280;1003;48.002;7.788;2022-08-21T07:36:04;99002.47;;;21.47;100.00
5595;BME280;1003;48.002;7.788;2022-08-21T07:38:32;98996.13;;;21.97;99.05
5595;BME280;1003;48.002;7.788;2022-08-21T07:41:02;98987.91;;;23.16;100.00
5595;BME280;1003;48.002;7.788;2022-08-21T07:43:29;98994.94;;;24.03;95.37
5595;BME280;1003;48.002;7.788;2022-08-21T07:45:57;98989.97;;;24.39;76.40
5595;BME280;1003;48.002;7.788;2022-08-21T07:48:24;98992.41;;;24.40;71.26
5595;BME280;1003;48.002;7.788;2022-08-21T07:50:52;98992.53;;;24.39;71.80
5595;BME280;1003;48.002;7.788;2022-08-21T07:53:21;99000.19;;;24.51;71.02
5595;BME280;1003;48.002;7.788;2022-08-21T07:55:48;98993.31;;;24.76;70.17
5595;BME280;1003;48.002;7.788;2022-08-21T07:58:17;98989.34;;;24.59;65.88
5595;BME280;1003;48.002;7.788;2022-08-21T08:00:45;98989.41;;;24.46;73.31
5595;BME280;1003;48.002;7.788;2022-08-21T08:03:12;98985.41;;;24.90;72.97
5595;BME280;1003;48.002;7.788;2022-08-21T08:05:40;98979.84;;;25.20;60.24
5595;BME280;1003;48.002;7.788;2022-08-21T08:08:08;98981.09;;;24.91;66.24
5595;BME280;1003;48.002;7.788;2022-08-21T08:10:38;98981.91;;;24.91;64.64
5595;BME280;1003;48.002;7.788;2022-08-21T08:13:05;98974.84;;;24.71;63.05
5595;BME280;1003;48.002;7.788;2022-08-21T08:15:35;98977.13;;;24.63;64.90
5595;BME280;1003;48.002;7.788;2022-08-21T08:18:03;98966.91;;;24.50;64.37
5595;BME280;1003;48.002;7.788;2022-08-21T08:20:30;98965.19;;;24.25;68.45
5595;BME280;1003;48.002;7.788;2022-08-21T08:22:58;98961.38;;;24.67;64.77
5595;BME280;1003;48.002;7.788;2022-08-21T08:25:26;98963.50;;;24.97;58.62
5595;BME280;1003;48.002;7.788;2022-08-21T08:27:54;98955.28;;;24.92;55.59
5595;BME280;1003;48.002;7.788;2022-08-21T08:30:21;98968.00;;;25.18;52.35
5595;BME280;1003;48.002;7.788;2022-08-21T08:32:51;98957.22;;;25.12;53.96
5595;BME280;1003;48.002;7.788;2022-08-21T08:35:19;98962.28;;;25.14;53.64
5595;BME280;1003;48.002;7.788;2022-08-21T08:37:46;98947.31;;;25.08;55.25
5595;BME280;1003;48.002;7.788;2022-08-21T08:40:20;98951.41;;;24.86;55.52
5595;BME280;1003;48.002;7.788;2022-08-21T08:42:50;98954.41;;;24.80;55.49
5595;BME280;1003;48.002;7.788;2022-08-21T08:45:21;98950.28;;;24.67;55.46
5595;BME280;1003;48.002;7.788;2022-08-21T08:47:56;98958.34;;;24.73;56.95
5595;BME280;1003;48.002;7.788;2022-08-21T08:50:39;98942.91;;;24.62;57.99
5595;BME280;1003;48.002;7.788;2022-08-21T08:53:14;98945.34;;;24.40;55.74
5595;BME280;1003;48.002;7.788;2022-08-21T08:55:45;98947.66;;;24.55;60.32
5595;BME280;1003;48.002;7.788;2022-08-21T08:58:20;98946.00;;;24.18;61.93
5595;BME280;1003;48.002;7.788;2022-08-21T09:00:52;98943.13;;;24.22;62.93
5595;BME280;1003;48.002;7.788;2022-08-21T09:03:22;98940.00;;;24.30;60.27
5595;BME280;1003;48.002;7.788;2022-08-21T09:06:00;98931.00;;;24.24;60.02
5595;BME280;1003;48.002;7.788;2022-08-21T09:08:46;98929.84;;;24.28;58.94
5595;BME280;1003;48.002;7.788;2022-08-21T09:11:27;98932.50;;;24.27;56.66
5595;BME280;1003;48.002;7.788;2022-08-21T09:14:07;98930.59;;;24.18;55.14
5595;BME280;1003;48.002;7.788;2022-08-21T09:16:47;98932.91;;;23.97;58.87
5595;BME280;1003;48.002;7.788;2022-08-21T09:19:35;98927.47;;;24.25;59.99
5595;BME280;1003;48.002;7.788;2022-08-21T09:22:16;98924.53;;;24.19;59.59
5595;BME280;1003;48.002;7.788;2022-08-21T09:24:54;98918.25;;;23.86;57.63
5595;BME280;1003;48.002;7.788;2022-08-21T09:27:28;98920.78;;;23.99;58.78
5595;BME280;1003;48.002;7.788;2022-08-21T09:29:57;98921.41;;;24.02;58.24
5595;BME280;1003;48.002;7.788;2022-08-21T09:32:28;98910.00;;;24.06;57.54
5595;BME280;1003;48.002;7.788;2022-08-21T09:35:00;98915.69;;;24.23;56.35
5595;BME280;1003;48.002;7.788;2022-08-21T09:37:31;98910.63;;;24.21;52.52
5595;BME280;1003;48.002;7.788;2022-08-21T09:40:03;98910.25;;;23.91;53.55
5595;BME280;1003;48.002;7.788;2022-08-21T09:42:41;98900.91;;;23.90;54.02
5595;BME280;1003;48.002;7.788;2022-08-21T09:45:14;98902.81;;;23.99;57.02
5595;BME280;1003;48.002;7.788;2022-08-21T09:47:42;98895.66;;;24.15;52.02
5595;BME280;1003;48.002;7.788;2022-08-21T09:50:18;98904.31;;;24.14;53.86
5595;BME280;1003;48.002;7.788;2022-08-21T09:52:51;98899.97;;;24.27;52.81
5595;BME280;1003;48.002;7.788;2022-08-21T09:55:32;98898.78;;;24.31;53.99
5595;BME280;1003;48.002;7.788;2022-08-21T09:58:19;98897.69;;;24.35;52.65
5595;BME280;1003;48.002;7.788;2022-08-21T10:00:58;98893.75;;;24.43;51.50
5595;BME280;1003;48.002;7.788;2022-08-21T10:03:26;98889.84;;;24.37;52.96
5595;BME280;1003;48.002;7.788;2022-08-21T10:06:00;98882.00;;;24.51;53.79
5595;BME280;1003;48.002;7.788;2022-08-21T10:08:32;98882.19;;;24.48;53.77
5595;BME280;1003;48.002;7.788;2022-08-21T10:11:05;98881.53;;;24.57;52.43
5595;BME280;1003;48.002;7.788;2022-08-21T10:13:56;98877.63;;;24.65;52.67
5595;BME280;1003;48.002;7.788;2022-08-21T10:16:38;98869.84;;;24.53;50.88
5595;BME280;1003;48.002;7.788;2022-08-21T10:19:23;98877.13;;;24.35;50.74
5595;BME280;1003;48.002;7.788;2022-08-21T10:22:07;98879.41;;;24.27;52.26
5595;BME280;1003;48.002;7.788;2022-08-21T10:24:42;98867.50;;;24.50;52.30
5595;BME280;1003;48.002;7.788;2022-08-21T10:27:21;98862.25;;;24.52;51.20
5595;BME280;1003;48.002;7.788;2022-08-21T10:29:56;98867.22;;;24.66;50.82
5595;BME280;1003;48.002;7.788;2022-08-21T10:32:44;98860.06;;;24.70;50.98
5595;BME280;1003;48.002;7.788;2022-08-21T10:35:23;98863.75;;;24.90;49.77
5595;BME280;1003;48.002;7.788;2022-08-21T10:38:14;98849.66;;;25.06;50.96
5595;BME280;1003;48.002;7.788;2022-08-21T10:40:57;98852.84;;;25.32;50.80
5595;BME280;1003;48.002;7.788;2022-08-21T10:43:41;98861.75;;;25.51;49.10
5595;BME280;1003;48.002;7.788;2022-08-21T10:46:20;98853.44;;;25.47;49.12
5595;BME280;1003;48.002;7.788;2022-08-21T10:48:55;98859.75;;;25.43;49.55
5595;BME280;1003;48.002;7.788;2022-08-21T10:51:34;98855.88;;;25.37;48.47
5595;BME280;1003;48.002;7.788;2022-08-21T10:54:13;98856.38;;;25.43;47.44
5595;BME280;1003;48.002;7.788;2022-08-21T10:56:49;98856.81;;;25.59;49.35
5595;BME280;1003;48.002;7.788;2022-08-21T10:59:27;98850.97;;;25.79;48.16
5595;BME280;1003;48.002;7.788;2022-08-21T11:02:02;98855.50;;;25.87;47.82
5595;BME280;1003;48.002;7.788;2022-08-21T11:04:45;98850.34;;;25.98;48.71
5595;BME280;1003;48.002;7.788;2022-08-21T11:07:21;98845.72;;;26.13;46.04
5595;BME280;1003;48.002;7.788;2022-08-21T11:09:55;98855.06;;;26.25;46.33
5595;BME280;1003;48.002;7.788;2022-08-21T11:12:32;98847.41;;;26.35;43.70
5595;BME280;1003;48.002;7.788;2022-08-21T11:15:29;98843.53;;;26.08;43.24
5595;BME280;1003;48.002;7.788;2022-08-21T11:18:17;98845.41;;;26.06;44.66
5595;BME280;1003;48.002;7.788;2022-08-21T11:20:59;98836.34;;;26.23;44.86
5595;BME280;1003;48.002;7.788;2022-08-21T11:23:39;98838.25;;;26.42;42.97
5595;BME280;1003;48.002;7.788;2022-08-21T11:26:15;98830.38;;;26.23;44.28
5595;BME280;1003;48.002;7.788;2022-08-21T11:28:51;98829.88;;;26.29;45.42
5595;BME280;1003;48.002;7.788;2022-08-21T11:31:41;98825.97;;;26.34;45.79
5595;BME280;1003;48.002;7.788;2022-08-21T11:34:41;98820.31;;;26.40;47.28
5595;BME280;1003;48.002;7.788;2022-08-21T11:37:23;98824.84;;;26.27;47.33
5595;BME280;1003;48.002;7.788;2022-08-21T11:40:03;98821.38;;;26.17;45.74
5595;BME280;1003;48.002;7.788;2022-08-21T11:42:41;98826.84;;;25.80;45.51
5595;BME280;1003;48.002;7.788;2022-08-21T11:45:22;98814.09;;;25.68;45.72
5595;BME280;1003;48.002;7.788;2022-08-21T11:48:07;98821.34;;;25.85;50.06
5595;BME280;1003;48.002;7.788;2022-08-21T11:50:43;98814.34;;;26.40;47.98
5595;BME280;1003;48.002;7.788;2022-08-21T11:53:19;98815.56;;;26.78;47.42
5595;BME280;1003;48.002;7.788;2022-08-21T11:55:55;98809.56;;;26.98;45.37
5595;BME280;1003;48.002;7.788;2022-08-21T11:58:35;98807.22;;;26.85;45.74
5595;BME280;1003;48.002;7.788;2022-08-21T12:01:08;98805.03;;;26.90;45.46
5595;BME280;1003;48.002;7.788;2022-08-21T12:03:40;98798.16;;;26.91;45.64
5595;BME280;1003;48.002;7.788;2022-08-21T12:06:13;98806.19;;;26.98;44.89
5595;BME280;1003;48.002;7.788;2022-08-21T12:08:44;98805.97;;;26.59;43.16
5595;BME280;1003;48.002;7.788;2022-08-21T12:11:24;98790.13;;;26.10;45.24
5595;BME280;1003;48.002;7.788;2022-08-21T12:14:00;98804.56;;;26.02;45.87
5595;BME280;1003;48.002;7.788;2022-08-21T12:16:40;98798.75;;;25.88;46.08
5595;BME280;1003;48.002;7.788;2022-08-21T12:19:10;98795.03;;;25.70;47.07
5595;BME280;1003;48.002;7.788;2022-08-21T12:21:51;98805.81;;;25.53;52.14
5595;BME280;1003;48.002;7.788;2022-08-21T12:24:32;98801.72;;;25.50;50.86
5595;BME280;1003;48.002;7.788;2022-08-21T12:27:20;98808.28;;;25.43;53.29
5595;BME280;1003;48.002;7.788;2022-08-21T12:29:55;98794.59;;;25.54;48.22
5595;BME280;1003;48.002;7.788;2022-08-21T12:32:27;98797.13;;;25.65;48.64
5595;BME280;1003;48.002;7.788;2022-08-21T12:35:01;98802.63;;;25.83;47.87
5595;BME280;1003;48.002;7.788;2022-08-21T12:37:40;98794.38;;;26.32;45.87
5595;BME280;1003;48.002;7.788;2022-08-21T12:40:17;98797.38;;;26.49;45.85
5595;BME280;1003;48.002;7.788;2022-08-21T12:42:51;98790.97;;;26.32;45.99
5595;BME280;1003;48.002;7.788;2022-08-21T12:45:28;98795.53;;;26.07;46.11
5595;BME280;1003;48.002;7.788;2022-08-21T12:48:03;98790.81;;;25.69;49.18
5595;BME280;1003;48.002;7.788;2022-08-21T12:50:41;98787.53;;;25.56;49.94
5595;BME280;1003;48.002;7.788;2022-08-21T12:53:19;98787.97;;;25.72;51.04
5595;BME280;1003;48.002;7.788;2022-08-21T12:55:51;98788.81;;;25.73;52.29
5595;BME280;1003;48.002;7.788;2022-08-21T12:58:20;98786.34;;;25.71;52.37
5595;BME280;1003;48.002;7.788;2022-08-21T13:00:53;98787.56;;;25.78;52.55
5595;BME280;1003;48.002;7.788;2022-08-21T13:03:22;98778.03;;;26.22;48.77
5595;BME280;1003;48.002;7.788;2022-08-21T13:05:50;98777.56;;;26.49;47.95
5595;BME280;1003;48.002;7.788;2022-08-21T13:08:21;98780.00;;;26.72;47.16
5595;BME280;1003;48.002;7.788;2022-08-21T13:11:01;98778.84;;;26.85;46.34
5595;BME280;1003;48.002;7.788;2022-08-21T13:13:31;98779.56;;;26.97;47.90
5595;BME280;1003;48.002;7.788;2022-08-21T13:16:05;98774.28;;;26.99;45.91
5595;BME280;1003;48.002;7.788;2022-08-21T13:18:36;98775.31;;;27.17;45.56
5595;BME280;1003;48.002;7.788;2022-08-21T13:21:12;98784.09;;;27.35;44.27
5595;BME280;1003;48.002;7.788;2022-08-21T13:23:40;98778.13;;;27.44;43.73
5595;BME280;1003;48.002;7.788;2022-08-21T13:26:13;98783.38;;;27.24;43.41
5595;BME280;1003;48.002;7.788;2022-08-21T13:28:40;98781.69;;;26.82;43.52
5595;BME280;1003;48.002;7.788;2022-08-21T13:31:11;98772.13;;;26.52;44.42
5595;BME280;1003;48.002;7.788;2022-08-21T13:33:41;98769.72;;;26.39;44.88
5595;BME280;1003;48.002;7.788;2022-08-21T13:36:11;98769.41;;;26.33;44.32
5595;BME280;1003;48.002;7.788;2022-08-21T13:38:42;98773.22;;;26.50;44.34
5595;BME280;1003;48.002;7.788;2022-08-21T13:41:21;98767.25;;;26.49;45.31
5595;BME280;1003;48.002;7.788;2022-08-21T13:44:00;98764.97;;;26.56;45.35